sensor_id;sensor_type;location;lat;lon;timestamp;temperature;humidity
49549;DHT22;35450;44.518;7.466;2023-07-31T00:02:39;24.10;96.60
49549;DHT22;35450;44.518;7.466;2023-07-31T00:05:43;24.10;97.20
49549;DHT22;35450;44.518;7.466;2023-07-31T00:08:47;24.00;96.80
49549;DHT22;35450;44.518;7.466;2023-07-31T00:11:51;24.00;96.50
49549;DHT22;35450;44.518;7.466;2023-07-31T00:14:55;24.10;96.10
49549;DHT22;35450;44.518;7.466;2023-07-31T00:17:59;24.00;96.00
49549;DHT22;35450;44.518;7.466;2023-07-31T00:21:05;24.00;95.50
49549;DHT22;35450;44.518;7.466;2023-07-31T00:24:09;23.70;94.00
49549;DHT22;35450;44.518;7.466;2023-07-31T00:27:12;23.70;94.40
49549;DHT22;35450;44.518;7.466;2023-07-31T00:30:16;23.80;94.60
49549;DHT22;35450;44.518;7.466;2023-07-31T00:33:20;23.90;94.70
49549;DHT22;35450;44.518;7.466;2023-07-31T00:36:24;23.90;94.10
49549;DHT22;35450;44.518;7.466;2023-07-31T00:39:30;23.80;93.70
49549;DHT22;35450;44.518;7.466;2023-07-31T00:42:34;23.80;93.80
49549;DHT22;35450;44.518;7.466;2023-07-31T00:45:38;23.70;93.90
49549;DHT22;35450;44.518;7.466;2023-07-31T00:48:43;23.70;94.20
49549;DHT22;35450;44.518;7.466;2023-07-31T00:51:46;23.60;94.50
49549;DHT22;35450;44.518;7.466;2023-07-31T00:54:51;23.60;94.50
49549;DHT22;35450;44.518;7.466;2023-07-31T00:57:55;23.50;94.60
49549;DHT22;35450;44.518;7.466;2023-07-31T01:00:59;23.50;94.70
49549;DHT22;35450;44.518;7.466;2023-07-31T01:04:04;23.60;94.80
49549;DHT22;35450;44.518;7.466;2023-07-31T01:07:32;23.60;95.30
49549;DHT22;35450;44.518;7.466;2023-07-31T01:10:54;23.50;95.70
49549;DHT22;35450;44.518;7.466;2023-07-31T01:13:59;23.50;95.80
49549;DHT22;35450;44.518;7.466;2023-07-31T01:17:04;23.50;96.00
49549;DHT22;35450;44.518;7.466;2023-07-31T01:20:22;23.50;95.50
49549;DHT22;35450;44.518;7.466;2023-07-31T01:23:48;23.40;95.60
49549;DHT22;35450;44.518;7.466;2023-07-31T01:26:58;23.40;95.50
49549;DHT22;35450;44.518;7.466;2023-07-31T01:30:14;23.40;95.50
49549;DHT22;35450;44.518;7.466;2023-07-31T01:33:20;23.40;95.70
49549;DHT22;35450;44.518;7.466;2023-07-31T01:36:25;23.50;94.90
49549;DHT22;35450;44.518;7.466;2023-07-31T01:39:29;23.30;94.30
49549;DHT22;35450;44.518;7.466;2023-07-31T01:42:33;23.30;94.70
49549;DHT22;35450;44.518;7.466;2023-07-31T01:45:37;23.40;94.90
49549;DHT22;35450;44.518;7.466;2023-07-31T01:48:41;23.40;95.20
49549;DHT22;35450;44.518;7.466;2023-07-31T01:51:45;23.40;95.40
49549;DHT22;35450;44.518;7.466;2023-07-31T01:54:49;23.50;95.40
49549;DHT22;35450;44.518;7.466;2023-07-31T01:57:54;23.50;96.00
49549;DHT22;35450;44.518;7.466;2023-07-31T02:00:58;23.50;96.40
49549;DHT22;35450;44.518;7.466;2023-07-31T02:04:02;23.40;96.20
49549;DHT22;35450;44.518;7.466;2023-07-31T02:07:08;23.50;96.40
49549;DHT22;35450;44.518;7.466;2023-07-31T02:10:11;23.50;96.20
49549;DHT22;35450;44.518;7.466;2023-07-31T02:13:15;23.50;96.10
49549;DHT22;35450;44.518;7.466;2023-07-31T02:16:20;23.50;95.80
49549;DHT22;35450;44.518;7.466;2023-07-31T02:19:23;23.50;96.00
49549;DHT22;35450;44.518;7.466;2023-07-31T02:22:27;23.50;96.10
49549;DHT22;35450;44.518;7.466;2023-07-31T02:25:31;23.40;95.80
49549;DHT22;35450;44.518;7.466;2023-07-31T02:28:36;23.40;95.90
49549;DHT22;35450;44.518;7.466;2023-07-31T02:31:40;23.40;96.10
49549;DHT22;35450;44.518;7.466;2023-07-31T02:34:44;23.50;96.60
49549;DHT22;35450;44.518;7.466;2023-07-31T02:37:48;23.40;96.70
49549;DHT22;35450;44.518;7.466;2023-07-31T02:40:52;23.30;96.60
49549;DHT22;35450;44.518;7.466;2023-07-31T02:43:56;23.30;96.40
49549;DHT22;35450;44.518;7.466;2023-07-31T02:47:00;23.30;96.20
49549;DHT22;35450;44.518;7.466;2023-07-31T02:50:04;23.30;96.30
49549;DHT22;35450;44.518;7.466;2023-07-31T02:53:08;23.30;96.20
49549;DHT22;35450;44.518;7.466;2023-07-31T02:56:12;23.40;96.10
49549;DHT22;35450;44.518;7.466;2023-07-31T02:59:17;23.50;95.80
49549;DHT22;35450;44.518;7.466;2023-07-31T03:02:20;23.50;95.50
49549;DHT22;35450;44.518;7.466;2023-07-31T03:05:24;23.50;95.40
49549;DHT22;35450;44.518;7.466;2023-07-31T03:08:28;23.50;95.10
49549;DHT22;35450;44.518;7.466;2023-07-31T03:11:33;23.60;95.20
49549;DHT22;35450;44.518;7.466;2023-07-31T03:14:36;23.60;95.30
49549;DHT22;35450;44.518;7.466;2023-07-31T03:17:40;23.60;94.70
49549;DHT22;35450;44.518;7.466;2023-07-31T03:20:44;23.50;95.50
49549;DHT22;35450;44.518;7.466;2023-07-31T03:23:49;23.40;95.90
49549;DHT22;35450;44.518;7.466;2023-07-31T03:26:53;23.40;95.90
49549;DHT22;35450;44.518;7.466;2023-07-31T03:29:57;23.40;95.20
49549;DHT22;35450;44.518;7.466;2023-07-31T03:33:00;23.40;95.30
49549;DHT22;35450;44.518;7.466;2023-07-31T03:36:04;23.40;95.50
49549;DHT22;35450;44.518;7.466;2023-07-31T03:39:10;23.40;95.90
49549;DHT22;35450;44.518;7.466;2023-07-31T03:42:14;23.40;95.90
49549;DHT22;35450;44.518;7.466;2023-07-31T03:45:18;23.40;95.30
49549;DHT22;35450;44.518;7.466;2023-07-31T03:48:23;23.40;95.30
49549;DHT22;35450;44.518;7.466;2023-07-31T03:51:27;23.40;96.00
49549;DHT22;35450;44.518;7.466;2023-07-31T03:54:31;23.40;95.90
49549;DHT22;35450;44.518;7.466;2023-07-31T03:57:35;23.30;95.90
49549;DHT22;35450;44.518;7.466;2023-07-31T04:00:40;23.40;95.80
49549;DHT22;35450;44.518;7.466;2023-07-31T04:03:44;23.40;96.10
49549;DHT22;35450;44.518;7.466;2023-07-31T04:06:48;23.30;96.10
49549;DHT22;35450;44.518;7.466;2023-07-31T04:09:52;23.10;95.70
49549;DHT22;35450;44.518;7.466;2023-07-31T04:12:56;23.10;95.90
49549;DHT22;35450;44.518;7.466;2023-07-31T04:16:00;23.20;96.10
49549;DHT22;35450;44.518;7.466;2023-07-31T04:19:04;23.20;96.10
49549;DHT22;35450;44.518;7.466;2023-07-31T04:22:08;23.10;96.10
49549;DHT22;35450;44.518;7.466;2023-07-31T04:25:12;23.10;96.20
49549;DHT22;35450;44.518;7.466;2023-07-31T04:28:16;22.90;95.20
49549;DHT22;35450;44.518;7.466;2023-07-31T04:31:20;22.90;95.30
49549;DHT22;35450;44.518;7.466;2023-07-31T04:34:24;22.90;95.50
49549;DHT22;35450;44.518;7.466;2023-07-31T04:37:28;23.00;95.30
49549;DHT22;35450;44.518;7.466;2023-07-31T04:40:31;23.10;95.00
49549;DHT22;35450;44.518;7.466;2023-07-31T04:43:35;23.10;94.80
49549;DHT22;35450;44.518;7.466;2023-07-31T04:46:42;22.90;95.50
49549;DHT22;35450;44.518;7.466;2023-07-31T04:49:46;22.80;95.60
49549;DHT22;35450;44.518;7.466;2023-07-31T04:52:50;22.80;95.40
49549;DHT22;35450;44.518;7.466;2023-07-31T04:55:54;22.90;95.80
49549;DHT22;35450;44.518;7.466;2023-07-31T04:58:58;22.90;95.40
49549;DHT22;35450;44.518;7.466;2023-07-31T05:02:02;22.90;95.20
49549;DHT22;35450;44.518;7.466;2023-07-31T05:05:07;23.00;95.50
49549;DHT22;35450;44.518;7.466;2023-07-31T05:08:11;23.10;95.50
49549;DHT22;35450;44.518;7.466;2023-07-31T05:11:15;23.10;95.40
49549;DHT22;35450;44.518;7.466;2023-07-31T05:14:19;23.20;95.70
49549;DHT22;35450;44.518;7.466;2023-07-31T05:17:24;23.20;95.70
49549;DHT22;35450;44.518;7.466;2023-07-31T05:20:28;23.20;95.50
49549;DHT22;35450;44.518;7.466;2023-07-31T05:23:32;23.10;95.40
49549;DHT22;35450;44.518;7.466;2023-07-31T05:26:37;23.10;95.40
49549;DHT22;35450;44.518;7.466;2023-07-31T05:29:41;23.20;95.50
49549;DHT22;35450;44.518;7.466;2023-07-31T05:32:45;23.20;95.50
49549;DHT22;35450;44.518;7.466;2023-07-31T05:35:49;23.20;95.40
49549;DHT22;35450;44.518;7.466;2023-07-31T05:38:53;23.20;95.70
49549;DHT22;35450;44.518;7.466;2023-07-31T05:41:57;23.20;95.50
49549;DHT22;35450;44.518;7.466;2023-07-31T05:45:01;23.30;95.40
49549;DHT22;35450;44.518;7.466;2023-07-31T05:48:06;23.40;95.30
49549;DHT22;35450;44.518;7.466;2023-07-31T05:51:10;23.40;94.90
49549;DHT22;35450;44.518;7.466;2023-07-31T05:54:14;23.40;95.50
49549;DHT22;35450;44.518;7.466;2023-07-31T05:57:18;23.50;94.90
49549;DHT22;35450;44.518;7.466;2023-07-31T06:00:22;23.40;94.70
49549;DHT22;35450;44.518;7.466;2023-07-31T06:03:26;23.50;94.70
49549;DHT22;35450;44.518;7.466;2023-07-31T06:06:30;23.50;94.30
49549;DHT22;35450;44.518;7.466;2023-07-31T06:09:34;23.50;94.20
49549;DHT22;35450;44.518;7.466;2023-07-31T06:12:38;23.50;94.50
49549;DHT22;35450;44.518;7.466;2023-07-31T06:15:42;23.60;94.30
49549;DHT22;35450;44.518;7.466;2023-07-31T06:18:46;23.60;94.10
49549;DHT22;35450;44.518;7.466;2023-07-31T06:21:50;23.60;93.30
49549;DHT22;35450;44.518;7.466;2023-07-31T06:24:54;23.70;93.60
49549;DHT22;35450;44.518;7.466;2023-07-31T06:27:58;23.70;93.50
49549;DHT22;35450;44.518;7.466;2023-07-31T06:31:02;23.60;93.20
49549;DHT22;35450;44.518;7.466;2023-07-31T06:34:07;23.70;92.90
49549;DHT22;35450;44.518;7.466;2023-07-31T06:37:11;23.70;92.40
49549;DHT22;35450;44.518;7.466;2023-07-31T06:40:15;23.80;92.20
49549;DHT22;35450;44.518;7.466;2023-07-31T06:43:20;23.80;92.40
49549;DHT22;35450;44.518;7.466;2023-07-31T06:46:25;23.80;92.20
49549;DHT22;35450;44.518;7.466;2023-07-31T06:49:29;23.90;92.70
49549;DHT22;35450;44.518;7.466;2023-07-31T06:52:32;24.00;92.60
49549;DHT22;35450;44.518;7.466;2023-07-31T06:55:36;24.00;92.50
49549;DHT22;35450;44.518;7.466;2023-07-31T06:58:40;24.00;91.80
49549;DHT22;35450;44.518;7.466;2023-07-31T07:01:45;24.10;91.80
49549;DHT22;35450;44.518;7.466;2023-07-31T07:04:50;24.20;91.80
49549;DHT22;35450;44.518;7.466;2023-07-31T07:07:54;24.20;91.40
49549;DHT22;35450;44.518;7.466;2023-07-31T07:10:57;24.20;91.60
49549;DHT22;35450;44.518;7.466;2023-07-31T07:14:01;24.30;91.60
49549;DHT22;35450;44.518;7.466;2023-07-31T07:17:06;24.40;91.40
49549;DHT22;35450;44.518;7.466;2023-07-31T07:20:10;24.40;91.10
49549;DHT22;35450;44.518;7.466;2023-07-31T07:23:15;24.50;91.10
49549;DHT22;35450;44.518;7.466;2023-07-31T07:26:19;24.50;90.70
49549;DHT22;35450;44.518;7.466;2023-07-31T07:29:24;24.50;90.20
49549;DHT22;35450;44.518;7.466;2023-07-31T07:32:28;24.60;90.20
49549;DHT22;35450;44.518;7.466;2023-07-31T07:35:33;24.60;90.30
49549;DHT22;35450;44.518;7.466;2023-07-31T07:38:38;24.60;90.60
49549;DHT22;35450;44.518;7.466;2023-07-31T07:41:43;24.70;90.50
49549;DHT22;35450;44.518;7.466;2023-07-31T07:44:47;24.60;90.50
49549;DHT22;35450;44.518;7.466;2023-07-31T07:47:51;24.60;90.80
49549;DHT22;35450;44.518;7.466;2023-07-31T07:50:55;24.60;91.00
49549;DHT22;35450;44.518;7.466;2023-07-31T07:53:59;24.70;91.10
49549;DHT22;35450;44.518;7.466;2023-07-31T07:57:03;24.70;91.50
49549;DHT22;35450;44.518;7.466;2023-07-31T08:00:08;24.70;91.50
49549;DHT22;35450;44.518;7.466;2023-07-31T08:03:20;24.70;91.50
49549;DHT22;35450;44.518;7.466;2023-07-31T08:06:24;24.70;91.60
49549;DHT22;35450;44.518;7.466;2023-07-31T08:09:28;24.70;91.50
49549;DHT22;35450;44.518;7.466;2023-07-31T08:12:33;24.80;91.70
49549;DHT22;35450;44.518;7.466;2023-07-31T08:15:37;24.80;91.50
49549;DHT22;35450;44.518;7.466;2023-07-31T08:18:41;24.80;91.50
49549;DHT22;35450;44.518;7.466;2023-07-31T08:21:46;24.80;91.50
49549;DHT22;35450;44.518;7.466;2023-07-31T08:24:50;24.90;91.60
49549;DHT22;35450;44.518;7.466;2023-07-31T08:27:54;24.90;91.30
49549;DHT22;35450;44.518;7.466;2023-07-31T08:30:58;25.00;91.30
49549;DHT22;35450;44.518;7.466;2023-07-31T08:34:02;25.00;91.10
49549;DHT22;35450;44.518;7.466;2023-07-31T08:37:07;25.00;91.30
49549;DHT22;35450;44.518;7.466;2023-07-31T08:40:11;25.00;91.30
49549;DHT22;35450;44.518;7.466;2023-07-31T08:43:15;25.10;91.40
49549;DHT22;35450;44.518;7.466;2023-07-31T08:46:20;25.10;91.20
49549;DHT22;35450;44.518;7.466;2023-07-31T08:49:25;25.10;90.90
49549;DHT22;35450;44.518;7.466;2023-07-31T08:52:29;25.20;91.00
49549;DHT22;35450;44.518;7.466;2023-07-31T08:55:33;25.20;90.70
49549;DHT22;35450;44.518;7.466;2023-07-31T08:58:38;25.20;90.40
49549;DHT22;35450;44.518;7.466;2023-07-31T09:01:45;25.20;90.50
49549;DHT22;35450;44.518;7.466;2023-07-31T09:04:52;25.30;90.40
49549;DHT22;35450;44.518;7.466;2023-07-31T09:07:57;25.40;90.70
49549;DHT22;35450;44.518;7.466;2023-07-31T09:11:02;25.30;90.70
49549;DHT22;35450;44.518;7.466;2023-07-31T09:14:10;25.30;90.20
49549;DHT22;35450;44.518;7.466;2023-07-31T09:17:14;25.40;90.50
49549;DHT22;35450;44.518;7.466;2023-07-31T09:20:20;25.40;90.30
49549;DHT22;35450;44.518;7.466;2023-07-31T09:23:24;25.40;90.20
49549;DHT22;35450;44.518;7.466;2023-07-31T09:26:32;25.40;89.60
49549;DHT22;35450;44.518;7.466;2023-07-31T09:29:37;25.40;90.00
49549;DHT22;35450;44.518;7.466;2023-07-31T09:32:42;25.40;90.50
49549;DHT22;35450;44.518;7.466;2023-07-31T09:35:47;25.50;90.70
49549;DHT22;35450;44.518;7.466;2023-07-31T09:38:54;25.50;91.00
49549;DHT22;35450;44.518;7.466;2023-07-31T09:41:58;25.50;90.40
49549;DHT22;35450;44.518;7.466;2023-07-31T09:45:09;25.60;90.70
49549;DHT22;35450;44.518;7.466;2023-07-31T09:48:16;25.60;90.50
49549;DHT22;35450;44.518;7.466;2023-07-31T09:51:26;25.60;90.40
49549;DHT22;35450;44.518;7.466;2023-07-31T09:54:31;25.70;90.70
49549;DHT22;35450;44.518;7.466;2023-07-31T09:57:40;25.70;90.70
49549;DHT22;35450;44.518;7.466;2023-07-31T10:00:45;25.80;90.90
49549;DHT22;35450;44.518;7.466;2023-07-31T10:03:50;25.80;90.60
49549;DHT22;35450;44.518;7.466;2023-07-31T10:06:54;25.80;90.50
49549;DHT22;35450;44.518;7.466;2023-07-31T10:10:00;25.90;90.20
49549;DHT22;35450;44.518;7.466;2023-07-31T10:13:04;25.80;89.90
49549;DHT22;35450;44.518;7.466;2023-07-31T10:16:09;25.80;89.70
49549;DHT22;35450;44.518;7.466;2023-07-31T10:19:14;25.80;90.00
49549;DHT22;35450;44.518;7.466;2023-07-31T10:22:19;25.70;90.30
49549;DHT22;35450;44.518;7.466;2023-07-31T10:25:23;25.80;90.20
49549;DHT22;35450;44.518;7.466;2023-07-31T10:28:29;25.90;90.30
49549;DHT22;35450;44.518;7.466;2023-07-31T10:31:34;25.90;90.00
49549;DHT22;35450;44.518;7.466;2023-07-31T10:34:39;25.80;90.50
49549;DHT22;35450;44.518;7.466;2023-07-31T10:37:44;25.60;91.10
49549;DHT22;35450;44.518;7.466;2023-07-31T10:40:49;25.70;90.90
49549;DHT22;35450;44.518;7.466;2023-07-31T10:44:03;25.80;91.30
49549;DHT22;35450;44.518;7.466;2023-07-31T10:47:07;25.90;90.90
49549;DHT22;35450;44.518;7.466;2023-07-31T10:50:16;26.00;91.00
49549;DHT22;35450;44.518;7.466;2023-07-31T10:53:32;25.90;90.40
49549;DHT22;35450;44.518;7.466;2023-07-31T10:56:39;25.90;91.50
49549;DHT22;35450;44.518;7.466;2023-07-31T10:59:43;26.00;91.80
49549;DHT22;35450;44.518;7.466;2023-07-31T11:03:04;26.10;91.40
49549;DHT22;35450;44.518;7.466;2023-07-31T11:06:09;26.10;91.70
49549;DHT22;35450;44.518;7.466;2023-07-31T11:09:14;26.20;91.60
49549;DHT22;35450;44.518;7.466;2023-07-31T11:12:18;26.10;90.80
49549;DHT22;35450;44.518;7.466;2023-07-31T11:15:22;26.20;92.20
49549;DHT22;35450;44.518;7.466;2023-07-31T11:18:30;26.20;91.60
49549;DHT22;35450;44.518;7.466;2023-07-31T11:21:34;26.30;91.60
49549;DHT22;35450;44.518;7.466;2023-07-31T11:24:38;26.30;91.70
49549;DHT22;35450;44.518;7.466;2023-07-31T11:27:42;26.40;91.80
49549;DHT22;35450;44.518;7.466;2023-07-31T11:30:47;26.40;91.70
49549;DHT22;35450;44.518;7.466;2023-07-31T11:34:04;26.50;91.50
49549;DHT22;35450;44.518;7.466;2023-07-31T11:37:08;26.60;91.70
49549;DHT22;35450;44.518;7.466;2023-07-31T11:40:12;26.60;91.40
49549;DHT22;35450;44.518;7.466;2023-07-31T11:43:18;26.60;91.50
49549;DHT22;35450;44.518;7.466;2023-07-31T11:46:22;26.50;91.60
49549;DHT22;35450;44.518;7.466;2023-07-31T11:49:26;26.50;91.10
49549;DHT22;35450;44.518;7.466;2023-07-31T11:52:32;26.60;91.20
49549;DHT22;35450;44.518;7.466;2023-07-31T11:55:37;26.70;90.90
49549;DHT22;35450;44.518;7.466;2023-07-31T11:58:42;26.70;90.20
49549;DHT22;35450;44.518;7.466;2023-07-31T12:01:46;26.80;89.40
49549;DHT22;35450;44.518;7.466;2023-07-31T12:04:52;26.80;90.20
49549;DHT22;35450;44.518;7.466;2023-07-31T12:07:57;26.90;90.10
49549;DHT22;35450;44.518;7.466;2023-07-31T12:11:04;26.90;90.40
49549;DHT22;35450;44.518;7.466;2023-07-31T12:14:08;26.90;90.80
49549;DHT22;35450;44.518;7.466;2023-07-31T12:17:22;27.00;90.90
49549;DHT22;35450;44.518;7.466;2023-07-31T12:20:26;26.90;90.70
49549;DHT22;35450;44.518;7.466;2023-07-31T12:23:31;27.00;90.30
49549;DHT22;35450;44.518;7.466;2023-07-31T12:26:35;27.10;90.30
49549;DHT22;35450;44.518;7.466;2023-07-31T12:29:41;27.10;90.60
49549;DHT22;35450;44.518;7.466;2023-07-31T12:32:45;27.20;90.40
49549;DHT22;35450;44.518;7.466;2023-07-31T12:35:49;27.20;90.30
49549;DHT22;35450;44.518;7.466;2023-07-31T12:38:53;27.20;90.60
49549;DHT22;35450;44.518;7.466;2023-07-31T12:41:59;27.30;90.60
49549;DHT22;35450;44.518;7.466;2023-07-31T12:45:04;27.20;90.60
49549;DHT22;35450;44.518;7.466;2023-07-31T12:48:08;27.20;91.20
49549;DHT22;35450;44.518;7.466;2023-07-31T12:51:12;27.30;91.20
49549;DHT22;35450;44.518;7.466;2023-07-31T12:54:16;27.20;91.40
49549;DHT22;35450;44.518;7.466;2023-07-31T12:57:21;27.20;91.20
49549;DHT22;35450;44.518;7.466;2023-07-31T13:00:25;27.20;91.10
49549;DHT22;35450;44.518;7.466;2023-07-31T13:03:30;27.10;91.40
49549;DHT22;35450;44.518;7.466;2023-07-31T13:06:34;27.20;90.90
49549;DHT22;35450;44.518;7.466;2023-07-31T13:09:38;27.20;90.80
49549;DHT22;35450;44.518;7.466;2023-07-31T13:12:42;27.20;90.40
49549;DHT22;35450;44.518;7.466;2023-07-31T13:15:46;27.20;90.10
49549;DHT22;35450;44.518;7.466;2023-07-31T13:18:50;27.30;90.80
49549;DHT22;35450;44.518;7.466;2023-07-31T13:21:55;27.40;90.80
49549;DHT22;35450;44.518;7.466;2023-07-31T13:24:59;27.50;90.50
49549;DHT22;35450;44.518;7.466;2023-07-31T13:28:03;27.50;90.60
49549;DHT22;35450;44.518;7.466;2023-07-31T13:31:07;27.60;90.60
49549;DHT22;35450;44.518;7.466;2023-07-31T13:34:11;27.60;90.40
49549;DHT22;35450;44.518;7.466;2023-07-31T13:37:16;27.60;90.40
49549;DHT22;35450;44.518;7.466;2023-07-31T13:40:20;27.60;90.20
49549;DHT22;35450;44.518;7.466;2023-07-31T13:43:24;27.60;90.00
49549;DHT22;35450;44.518;7.466;2023-07-31T13:46:28;27.60;89.00
49549;DHT22;35450;44.518;7.466;2023-07-31T13:49:33;27.70;88.60
49549;DHT22;35450;44.518;7.466;2023-07-31T13:52:37;27.70;90.20
49549;DHT22;35450;44.518;7.466;2023-07-31T13:55:41;27.70;90.00
49549;DHT22;35450;44.518;7.466;2023-07-31T13:58:49;27.70;89.00
49549;DHT22;35450;44.518;7.466;2023-07-31T14:01:53;27.80;89.90
49549;DHT22;35450;44.518;7.466;2023-07-31T14:04:57;27.80;89.30
49549;DHT22;35450;44.518;7.466;2023-07-31T14:08:01;27.90;89.20
49549;DHT22;35450;44.518;7.466;2023-07-31T14:11:05;27.90;88.60
49549;DHT22;35450;44.518;7.466;2023-07-31T14:14:09;28.00;88.10
49549;DHT22;35450;44.518;7.466;2023-07-31T14:17:13;28.10;87.80
49549;DHT22;35450;44.518;7.466;2023-07-31T14:20:17;28.10;87.70
49549;DHT22;35450;44.518;7.466;2023-07-31T14:23:22;28.20;87.50
49549;DHT22;35450;44.518;7.466;2023-07-31T14:26:26;28.20;87.90
49549;DHT22;35450;44.518;7.466;2023-07-31T14:29:30;28.20;88.00
49549;DHT22;35450;44.518;7.466;2023-07-31T14:32:34;28.20;87.70
49549;DHT22;35450;44.518;7.466;2023-07-31T14:35:38;28.10;87.70
49549;DHT22;35450;44.518;7.466;2023-07-31T14:38:42;28.00;88.30
49549;DHT22;35450;44.518;7.466;2023-07-31T14:41:46;28.00;86.70
49549;DHT22;35450;44.518;7.466;2023-07-31T14:44:51;27.90;86.40
49549;DHT22;35450;44.518;7.466;2023-07-31T14:47:55;27.90;87.00
49549;DHT22;35450;44.518;7.466;2023-07-31T14:51:00;28.10;86.20
49549;DHT22;35450;44.518;7.466;2023-07-31T14:54:04;28.20;86.10
49549;DHT22;35450;44.518;7.466;2023-07-31T14:57:08;28.30;85.80
49549;DHT22;35450;44.518;7.466;2023-07-31T15:00:12;28.40;86.00
49549;DHT22;35450;44.518;7.466;2023-07-31T15:03:17;28.40;86.00
49549;DHT22;35450;44.518;7.466;2023-07-31T15:06:21;28.50;86.00
49549;DHT22;35450;44.518;7.466;2023-07-31T15:09:25;28.50;85.80
49549;DHT22;35450;44.518;7.466;2023-07-31T15:12:29;28.50;85.80
49549;DHT22;35450;44.518;7.466;2023-07-31T15:15:33;28.50;86.00
49549;DHT22;35450;44.518;7.466;2023-07-31T15:18:37;28.50;85.90
49549;DHT22;35450;44.518;7.466;2023-07-31T15:21:41;28.50;85.70
49549;DHT22;35450;44.518;7.466;2023-07-31T15:24:45;28.50;85.80
49549;DHT22;35450;44.518;7.466;2023-07-31T15:27:49;28.50;85.50
49549;DHT22;35450;44.518;7.466;2023-07-31T15:30:53;28.60;85.50
49549;DHT22;35450;44.518;7.466;2023-07-31T15:33:58;28.60;84.90
49549;DHT22;35450;44.518;7.466;2023-07-31T15:37:02;28.60;85.00
49549;DHT22;35450;44.518;7.466;2023-07-31T15:40:06;28.50;84.70
49549;DHT22;35450;44.518;7.466;2023-07-31T15:43:10;28.50;84.70
49549;DHT22;35450;44.518;7.466;2023-07-31T15:46:14;28.40;85.30
49549;DHT22;35450;44.518;7.466;2023-07-31T15:49:19;28.40;85.80
49549;DHT22;35450;44.518;7.466;2023-07-31T15:52:23;28.40;85.70
49549;DHT22;35450;44.518;7.466;2023-07-31T15:55:27;28.50;85.20
49549;DHT22;35450;44.518;7.466;2023-07-31T15:58:31;28.50;85.30
49549;DHT22;35450;44.518;7.466;2023-07-31T16:01:36;28.50;85.00
49549;DHT22;35450;44.518;7.466;2023-07-31T16:04:40;28.50;85.20
49549;DHT22;35450;44.518;7.466;2023-07-31T16:07:44;28.50;85.40
49549;DHT22;35450;44.518;7.466;2023-07-31T16:10:48;28.40;85.30
49549;DHT22;35450;44.518;7.466;2023-07-31T16:13:52;28.40;85.40
49549;DHT22;35450;44.518;7.466;2023-07-31T16:16:56;28.30;85.90
49549;DHT22;35450;44.518;7.466;2023-07-31T16:20:00;28.30;86.30
49549;DHT22;35450;44.518;7.466;2023-07-31T16:23:04;28.30;86.70
49549;DHT22;35450;44.518;7.466;2023-07-31T16:26:10;28.30;86.70
49549;DHT22;35450;44.518;7.466;2023-07-31T16:29:14;28.20;86.40
49549;DHT22;35450;44.518;7.466;2023-07-31T16:32:18;28.20;86.40
49549;DHT22;35450;44.518;7.466;2023-07-31T16:35:22;28.20;86.80
49549;DHT22;35450;44.518;7.466;2023-07-31T16:38:27;28.10;86.90
49549;DHT22;35450;44.518;7.466;2023-07-31T16:41:30;28.10;86.90
49549;DHT22;35450;44.518;7.466;2023-07-31T16:44:34;28.10;87.10
49549;DHT22;35450;44.518;7.466;2023-07-31T16:47:38;28.10;87.20
49549;DHT22;35450;44.518;7.466;2023-07-31T16:50:42;28.10;86.80
49549;DHT22;35450;44.518;7.466;2023-07-31T16:53:46;28.20;88.20
49549;DHT22;35450;44.518;7.466;2023-07-31T16:56:51;28.20;87.90
49549;DHT22;35450;44.518;7.466;2023-07-31T16:59:55;28.30;87.20
49549;DHT22;35450;44.518;7.466;2023-07-31T17:03:00;28.30;87.20
49549;DHT22;35450;44.518;7.466;2023-07-31T17:06:04;28.20;87.20
49549;DHT22;35450;44.518;7.466;2023-07-31T17:09:09;28.20;87.30
49549;DHT22;35450;44.518;7.466;2023-07-31T17:12:13;28.30;87.40
49549;DHT22;35450;44.518;7.466;2023-07-31T17:15:18;28.30;86.80
49549;DHT22;35450;44.518;7.466;2023-07-31T17:18:22;28.30;86.80
49549;DHT22;35450;44.518;7.466;2023-07-31T17:21:26;28.30;86.70
49549;DHT22;35450;44.518;7.466;2023-07-31T17:24:30;28.30;86.30
49549;DHT22;35450;44.518;7.466;2023-07-31T17:27:35;28.30;86.80
49549;DHT22;35450;44.518;7.466;2023-07-31T17:30:39;28.20;86.60
49549;DHT22;35450;44.518;7.466;2023-07-31T17:33:43;28.20;87.50
49549;DHT22;35450;44.518;7.466;2023-07-31T17:36:47;28.20;87.40
49549;DHT22;35450;44.518;7.466;2023-07-31T17:39:51;28.40;87.50
49549;DHT22;35450;44.518;7.466;2023-07-31T17:42:55;28.50;90.00
49549;DHT22;35450;44.518;7.466;2023-07-31T17:45:59;28.30;90.40
49549;DHT22;35450;44.518;7.466;2023-07-31T17:49:03;28.30;91.00
49549;DHT22;35450;44.518;7.466;2023-07-31T17:52:07;28.10;91.20
49549;DHT22;35450;44.518;7.466;2023-07-31T17:55:11;28.00;91.20
49549;DHT22;35450;44.518;7.466;2023-07-31T17:58:15;27.90;91.60
49549;DHT22;35450;44.518;7.466;2023-07-31T18:01:19;27.80;92.40
49549;DHT22;35450;44.518;7.466;2023-07-31T18:04:23;27.70;93.10
49549;DHT22;35450;44.518;7.466;2023-07-31T18:07:27;27.60;92.90
49549;DHT22;35450;44.518;7.466;2023-07-31T18:10:31;27.60;92.90
49549;DHT22;35450;44.518;7.466;2023-07-31T18:13:37;27.60;93.30
49549;DHT22;35450;44.518;7.466;2023-07-31T18:16:41;27.50;92.80
49549;DHT22;35450;44.518;7.466;2023-07-31T18:19:45;27.30;92.90
49549;DHT22;35450;44.518;7.466;2023-07-31T18:22:49;27.30;92.70
49549;DHT22;35450;44.518;7.466;2023-07-31T18:25:53;27.20;92.80
49549;DHT22;35450;44.518;7.466;2023-07-31T18:28:57;27.30;92.40
49549;DHT22;35450;44.518;7.466;2023-07-31T18:32:02;27.30;92.40
49549;DHT22;35450;44.518;7.466;2023-07-31T18:35:06;27.20;92.20
49549;DHT22;35450;44.518;7.466;2023-07-31T18:38:10;27.00;92.40
49549;DHT22;35450;44.518;7.466;2023-07-31T18:41:14;27.00;92.20
49549;DHT22;35450;44.518;7.466;2023-07-31T18:44:18;26.90;92.20
49549;DHT22;35450;44.518;7.466;2023-07-31T18:47:22;26.90;92.20
49549;DHT22;35450;44.518;7.466;2023-07-31T18:50:26;26.80;92.20
49549;DHT22;35450;44.518;7.466;2023-07-31T18:53:30;26.70;92.50
49549;DHT22;35450;44.518;7.466;2023-07-31T18:56:34;26.70;92.70
49549;DHT22;35450;44.518;7.466;2023-07-31T18:59:38;26.50;92.90
49549;DHT22;35450;44.518;7.466;2023-07-31T19:02:42;26.60;92.80
49549;DHT22;35450;44.518;7.466;2023-07-31T19:05:45;26.50;92.60
49549;DHT22;35450;44.518;7.466;2023-07-31T19:08:52;26.50;92.70
49549;DHT22;35450;44.518;7.466;2023-07-31T19:11:56;26.30;93.50
49549;DHT22;35450;44.518;7.466;2023-07-31T19:15:00;26.40;92.80
49549;DHT22;35450;44.518;7.466;2023-07-31T19:18:04;26.30;92.60
49549;DHT22;35450;44.518;7.466;2023-07-31T19:21:08;26.30;92.60
49549;DHT22;35450;44.518;7.466;2023-07-31T19:24:12;26.20;92.60
49549;DHT22;35450;44.518;7.466;2023-07-31T19:27:16;26.20;92.60